Time;durP1;ratioP1;P1;durP2;ratioP2;P2;SDS_P1;SDS_P2;PMS_P1;PMS_P2;Temp;Humidity;BMP_temperature;BMP_pressure;BME280_temperature;BME280_humidity;BME280_pressure;Samples;Min_cycle;Max_cycle;Signal;HPM_P1;HPM_P2
2023/07/11 00:00:53;;;;;;;11.63;6.13;;;22.10;1.00;;;;;;4989497;28;20181;-74
2023/07/11 00:03:19;;;;;;;10.13;6.27;;;22.00;1.00;;;;;;4988519;28;20210;-74
2023/07/11 00:06:00;;;;;;;8.20;5.83;;;21.80;1.00;;;;;;4989367;28;20429;-74
2023/07/11 00:08:26;;;;;;;10.37;6.50;;;21.70;1.00;;;;;;4988998;28;20178;-73
2023/07/11 00:10:51;;;;;;;11.37;5.93;;;21.70;1.00;;;;;;4992666;28;20820;-74
2023/07/11 00:13:17;;;;;;;14.00;6.50;;;21.70;1.00;;;;;;4982694;28;20202;-72
2023/07/11 00:15:43;;;;;;;9.60;6.00;;;21.70;1.00;;;;;;4991430;28;20182;-74
2023/07/11 00:18:08;;;;;;;10.27;5.90;;;21.80;1.00;;;;;;4992161;28;20206;-72
2023/07/11 00:20:34;;;;;;;9.60;6.37;;;21.80;1.00;;;;;;4992578;28;20712;-73
2023/07/11 00:22:59;;;;;;;10.60;5.83;;;21.70;1.00;;;;;;4991914;28;20214;-74
2023/07/11 00:25:25;;;;;;;8.00;6.20;;;21.80;1.00;;;;;;4992081;28;20214;-73
2023/07/11 00:27:50;;;;;;;8.93;6.10;;;21.70;1.00;;;;;;4992517;28;20182;-73
2023/07/11 00:30:16;;;;;;;9.33;6.03;;;21.60;1.00;;;;;;4992134;28;20661;-74
2023/07/11 00:32:41;;;;;;;10.40;6.57;;;21.60;1.00;;;;;;4992415;28;20205;-73
2023/07/11 00:35:07;;;;;;;12.03;6.07;;;21.60;1.00;;;;;;4989144;28;20190;-73
2023/07/11 00:37:34;;;;;;;9.03;6.07;;;21.60;1.00;;;;;;4984384;28;20212;-73
2023/07/11 00:39:59;;;;;;;10.17;6.50;;;21.60;1.00;;;;;;4992440;28;20431;-73
2023/07/11 00:42:25;;;;;;;8.63;5.97;;;21.60;1.00;;;;;;4989657;28;20823;-74
2023/07/11 00:44:57;;;;;;;11.70;6.60;;;21.60;1.00;;;;;;4990588;28;20209;-73
2023/07/11 00:47:25;;;;;;;8.70;5.73;;;21.60;1.00;;;;;;4991979;28;20568;-74
2023/07/11 00:50:03;;;;;;;12.80;6.90;;;21.60;1.00;;;;;;4990586;28;20426;-74
2023/07/11 00:52:31;;;;;;;8.00;5.93;;;21.50;1.00;;;;;;4990281;28;20446;-70
2023/07/11 00:55:00;;;;;;;9.33;6.20;;;21.50;1.00;;;;;;4991649;28;20504;-73
2023/07/11 00:57:31;;;;;;;9.03;6.47;;;21.40;1.00;;;;;;4991458;28;20422;-73
2023/07/11 00:59:56;;;;;;;9.90;6.23;;;21.50;1.00;;;;;;4992115;28;20461;-74
2023/07/11 01:02:26;;;;;;;7.77;5.90;;;21.50;1.00;;;;;;4991325;28;20479;-73
2023/07/11 01:04:51;;;;;;;13.17;6.27;;;21.50;1.00;;;;;;4991206;28;20597;-73
2023/07/11 01:07:21;;;;;;;12.40;5.97;;;21.40;1.00;;;;;;4991507;28;20449;-73
2023/07/11 01:09:46;;;;;;;11.43;6.33;;;21.30;1.00;;;;;;4991346;28;20194;-73
2023/07/11 01:12:14;;;;;;;13.47;6.37;;;21.20;1.00;;;;;;4991443;28;20453;-73
2023/07/11 01:14:41;;;;;;;8.13;6.03;;;21.30;1.00;;;;;;4991350;28;20588;-74
2023/07/11 01:17:20;;;;;;;10.10;6.40;;;21.30;1.00;;;;;;4991320;28;20795;-74
2023/07/11 01:19:46;;;;;;;9.97;6.07;;;21.30;1.00;;;;;;4984548;28;20448;-74
2023/07/11 01:22:11;;;;;;;10.60;6.00;;;21.40;1.00;;;;;;4990883;28;20481;-71
2023/07/11 01:24:37;;;;;;;12.20;6.10;;;21.30;1.00;;;;;;4991007;28;20202;-73
2023/07/11 01:27:02;;;;;;;7.73;5.53;;;21.20;1.00;;;;;;4991326;28;20632;-74
2023/07/11 01:29:28;;;;;;;9.70;6.07;;;21.20;1.00;;;;;;4990729;28;20233;-73
2023/07/11 01:31:53;;;;;;;8.20;5.63;;;21.30;1.00;;;;;;4995678;28;20194;-74
2023/07/11 01:34:19;;;;;;;12.50;6.30;;;21.30;1.00;;;;;;4991541;28;20183;-75
2023/07/11 01:36:44;;;;;;;10.37;6.30;;;21.20;1.00;;;;;;4991096;28;20205;-72
2023/07/11 01:39:10;;;;;;;10.73;6.87;;;21.10;1.00;;;;;;4991288;28;20187;-74
2023/07/11 01:41:35;;;;;;;10.10;6.30;;;20.90;1.00;;;;;;4990783;28;20186;-72
2023/07/11 01:44:02;;;;;;;12.10;6.83;;;20.80;1.00;;;;;;4989219;28;20289;-73
2023/07/11 01:46:27;;;;;;;13.67;7.20;;;20.70;1.00;;;;;;4988930;28;20191;-73
2023/07/11 01:48:53;;;;;;;12.77;7.40;;;20.70;1.00;;;;;;4990739;28;20762;-74
2023/07/11 01:51:18;;;;;;;9.10;6.20;;;20.70;1.00;;;;;;4990563;28;20688;-74
2023/07/11 01:53:44;;;;;;;10.60;6.53;;;20.60;1.00;;;;;;4990263;28;20285;-73
2023/07/11 01:56:09;;;;;;;9.60;5.87;;;20.50;1.00;;;;;;4991276;28;20653;-73
2023/07/11 01:58:35;;;;;;;9.10;6.20;;;20.50;1.00;;;;;;4990143;28;20187;-70
2023/07/11 02:01:00;;;;;;;9.17;6.33;;;20.50;1.00;;;;;;4990583;28;20193;-74
2023/07/11 02:03:26;;;;;;;12.00;5.70;;;20.40;1.00;;;;;;4989796;28;20672;-73
2023/07/11 02:05:52;;;;;;;12.03;6.10;;;20.30;1.00;;;;;;4990599;28;20178;-73
2023/07/11 02:08:18;;;;;;;9.40;6.20;;;20.20;1.00;;;;;;4988812;28;20198;-72
2023/07/11 02:10:43;;;;;;;9.83;6.50;;;20.30;1.00;;;;;;4990445;28;20441;-73
2023/07/11 02:13:10;;;;;;;10.47;6.43;;;20.20;1.00;;;;;;4990107;28;20345;-73
2023/07/11 02:15:36;;;;;;;15.03;6.60;;;20.20;1.00;;;;;;4989830;28;20234;-74
2023/07/11 02:18:02;;;;;;;10.73;6.53;;;20.20;1.00;;;;;;4990400;28;20492;-73
2023/07/11 02:20:27;;;;;;;15.20;6.70;;;20.10;1.00;;;;;;4989957;28;20220;-74
2023/07/11 02:22:53;;;;;;;10.27;6.97;;;20.10;1.00;;;;;;4989879;28;20244;-70
2023/07/11 02:25:18;;;;;;;11.30;6.43;;;20.00;1.00;;;;;;4989653;28;20223;-72
2023/07/11 02:27:44;;;;;;;9.10;6.33;;;19.90;1.00;;;;;;4990292;28;20187;-73
2023/07/11 02:30:10;;;;;;;11.40;6.13;;;19.90;1.00;;;;;;4989932;28;20233;-73
2023/07/11 02:32:35;;;;;;;12.93;5.90;;;19.90;1.00;;;;;;4996915;28;20297;-74
2023/07/11 02:35:01;;;;;;;11.10;6.27;;;19.90;1.00;;;;;;4989820;28;20186;-73
2023/07/11 02:37:26;;;;;;;11.57;6.30;;;19.90;1.00;;;;;;4989935;28;20198;-74
2023/07/11 02:39:52;;;;;;;10.90;5.97;;;19.70;1.00;;;;;;4989725;28;20282;-73
2023/07/11 02:42:17;;;;;;;15.83;6.37;;;19.80;1.00;;;;;;4990082;28;20241;-74
2023/07/11 02:44:43;;;;;;;10.33;6.10;;;19.80;1.00;;;;;;4989553;28;20694;-73
2023/07/11 02:47:12;;;;;;;13.47;6.10;;;19.70;1.00;;;;;;4990106;28;20190;-73
2023/07/11 02:49:38;;;;;;;8.80;6.23;;;19.70;1.00;;;;;;4989764;28;20187;-74
2023/07/11 02:52:09;;;;;;;11.77;5.83;;;19.70;1.00;;;;;;4990187;28;20460;-73
2023/07/11 02:54:36;;;;;;;11.40;6.40;;;19.70;1.00;;;;;;4989593;28;20784;-74
2023/07/11 02:57:03;;;;;;;9.67;5.97;;;19.60;1.00;;;;;;4990026;28;20434;-73
2023/07/11 02:59:29;;;;;;;10.20;6.27;;;19.60;1.00;;;;;;4989682;28;20527;-73
2023/07/11 03:01:56;;;;;;;9.77;6.50;;;19.50;1.00;;;;;;4989964;28;20871;-73
2023/07/11 03:04:22;;;;;;;10.13;6.50;;;19.40;1.00;;;;;;4984477;28;20478;-71
2023/07/11 03:06:47;;;;;;;10.47;6.70;;;19.50;1.00;;;;;;4989949;28;20513;-73
2023/07/11 03:09:13;;;;;;;13.20;5.80;;;19.50;1.00;;;;;;4990025;28;20225;-73
2023/07/11 03:11:38;;;;;;;9.97;6.03;;;19.50;1.00;;;;;;4989497;28;20725;-72
2023/07/11 03:14:04;;;;;;;9.93;5.40;;;19.60;1.00;;;;;;4989659;28;20290;-73
2023/07/11 03:16:29;;;;;;;10.03;6.33;;;19.50;1.00;;;;;;4988289;28;21105;-73
2023/07/11 03:18:55;;;;;;;13.23;6.10;;;19.50;1.00;;;;;;4989788;28;20194;-74
2023/07/11 03:21:20;;;;;;;8.57;6.40;;;19.50;1.00;;;;;;4989956;28;20248;-73
2023/07/11 03:23:46;;;;;;;9.37;5.83;;;19.50;1.00;;;;;;4988768;28;20723;-72
2023/07/11 03:26:11;;;;;;;10.53;6.20;;;19.50;1.00;;;;;;4989829;28;20194;-73
2023/07/11 03:28:37;;;;;;;13.47;6.27;;;19.50;1.00;;;;;;4989164;28;20202;-72
2023/07/11 03:31:02;;;;;;;8.53;6.37;;;19.50;1.00;;;;;;4989923;28;20186;-73
2023/07/11 03:33:28;;;;;;;12.80;6.60;;;19.50;1.00;;;;;;4988751;28;20353;-73
2023/07/11 03:35:53;;;;;;;11.10;6.30;;;19.50;1.00;;;;;;4984503;28;20245;-74
2023/07/11 03:38:19;;;;;;;8.40;6.50;;;19.60;1.00;;;;;;4989368;28;20258;-74
2023/07/11 03:40:45;;;;;;;8.10;6.10;;;19.70;1.00;;;;;;4989228;28;20190;-73
2023/07/11 03:43:10;;;;;;;11.77;6.67;;;19.80;1.00;;;;;;4989750;28;20442;-72
2023/07/11 03:45:40;;;;;;;11.67;6.43;;;19.80;1.00;;;;;;4993040;28;20217;-73
2023/07/11 03:48:05;;;;;;;9.67;6.07;;;19.80;1.00;;;;;;4993297;28;20183;-73
2023/07/11 03:50:31;;;;;;;11.17;5.97;;;19.80;1.00;;;;;;4993011;28;20769;-73
2023/07/11 03:52:56;;;;;;;10.60;6.50;;;19.90;1.00;;;;;;4992902;28;20252;-71
2023/07/11 03:55:22;;;;;;;13.03;6.50;;;20.00;1.00;;;;;;4992973;28;20217;-73
2023/07/11 03:57:47;;;;;;;9.53;6.47;;;20.00;1.00;;;;;;4992706;28;20704;-73
2023/07/11 04:00:13;;;;;;;9.10;6.37;;;20.00;1.00;;;;;;4991693;28;20233;-73
2023/07/11 04:02:39;;;;;;;10.60;6.63;;;20.00;1.00;;;;;;4992583;28;20629;-73
2023/07/11 04:05:04;;;;;;;12.60;6.80;;;20.00;1.00;;;;;;4992622;28;20210;-73
2023/07/11 04:07:30;;;;;;;10.33;6.37;;;20.00;1.00;;;;;;4992536;28;20429;-73
2023/07/11 04:09:55;;;;;;;10.03;6.53;;;20.10;1.00;;;;;;4992927;28;20210;-73
2023/07/11 04:12:21;;;;;;;8.57;6.73;;;20.10;1.00;;;;;;4992689;28;20277;-73
2023/07/11 04:14:47;;;;;;;8.93;6.30;;;20.10;1.00;;;;;;4990877;28;20390;-73
2023/07/11 04:17:12;;;;;;;8.80;6.20;;;20.20;1.00;;;;;;4992833;28;20233;-73
2023/07/11 04:19:37;;;;;;;10.37;6.57;;;20.20;1.00;;;;;;4992290;28;20191;-73
2023/07/11 04:22:03;;;;;;;9.53;6.13;;;20.40;1.00;;;;;;4992441;28;20217;-74
2023/07/11 04:24:29;;;;;;;10.50;6.13;;;20.30;1.00;;;;;;4991750;28;20696;-71
2023/07/11 04:26:54;;;;;;;12.37;6.00;;;20.40;1.00;;;;;;4992464;28;20190;-74
2023/07/11 04:29:20;;;;;;;9.07;6.30;;;20.30;1.00;;;;;;4992551;28;20186;-74
2023/07/11 04:31:45;;;;;;;11.30;6.03;;;20.30;1.00;;;;;;4991693;28;20262;-73
2023/07/11 04:34:11;;;;;;;10.60;6.50;;;20.20;1.00;;;;;;4992053;28;20210;-73
2023/07/11 04:36:36;;;;;;;9.03;6.40;;;20.30;1.00;;;;;;4992035;28;20190;-73
2023/07/11 04:39:03;;;;;;;11.30;7.20;;;20.40;1.00;;;;;;4992121;28;20266;-73
2023/07/11 04:41:28;;;;;;;9.93;6.60;;;20.40;1.00;;;;;;4991021;28;20190;-73
2023/07/11 04:43:54;;;;;;;9.30;6.83;;;20.50;1.00;;;;;;4991293;28;20889;-74
2023/07/11 04:46:19;;;;;;;8.37;6.43;;;20.50;1.00;;;;;;4992415;28;20186;-74
2023/07/11 04:48:46;;;;;;;11.07;7.30;;;20.50;1.00;;;;;;4991654;28;20621;-74
2023/07/11 04:51:12;;;;;;;10.50;7.17;;;20.60;1.00;;;;;;4992406;28;20257;-74
2023/07/11 04:53:39;;;;;;;8.97;6.50;;;20.70;1.00;;;;;;4991263;28;20588;-74
2023/07/11 04:56:06;;;;;;;9.13;6.70;;;20.80;1.00;;;;;;4991484;28;20183;-74
2023/07/11 04:58:34;;;;;;;8.67;6.50;;;20.90;1.00;;;;;;4991649;28;20429;-72
2023/07/11 05:01:18;;;;;;;8.30;6.60;;;20.90;1.00;;;;;;4990781;28;20426;-74
2023/07/11 05:03:44;;;;;;;9.00;7.10;;;21.00;1.00;;;;;;4990999;28;20486;-74
2023/07/11 05:06:11;;;;;;;9.80;7.00;;;21.10;1.00;;;;;;4977357;28;20483;-73
2023/07/11 05:08:37;;;;;;;14.77;6.50;;;21.20;1.00;;;;;;4988722;28;20220;-73
2023/07/11 05:11:07;;;;;;;9.30;6.47;;;21.30;1.00;;;;;;4991809;28;20426;-74
2023/07/11 05:13:34;;;;;;;9.60;6.20;;;21.50;1.00;;;;;;4990898;28;20290;-71
2023/07/11 05:16:05;;;;;;;8.70;6.23;;;21.50;1.00;;;;;;4991737;28;20444;-73
2023/07/11 05:18:31;;;;;;;14.30;6.07;;;21.60;1.00;;;;;;4990107;28;20444;-71
2023/07/11 05:20:58;;;;;;;8.23;6.23;;;21.70;1.00;;;;;;4991067;28;20934;-74
2023/07/11 05:23:29;;;;;;;9.33;7.30;;;21.90;1.00;;;;;;4990708;28;20457;-73
2023/07/11 05:25:55;;;;;;;9.40;7.07;;;22.10;1.00;;;;;;4991244;28;20923;-74
2023/07/11 05:28:24;;;;;;;12.53;6.50;;;22.00;1.00;;;;;;4991400;28;20517;-72
2023/07/11 05:30:50;;;;;;;10.37;6.70;;;22.10;1.00;;;;;;4991017;28;20426;-74
2023/07/11 05:33:16;;;;;;;10.70;7.20;;;22.20;1.00;;;;;;4990514;28;20688;-73
2023/07/11 05:35:47;;;;;;;9.80;7.27;;;22.40;1.00;;;;;;4984027;28;20199;-74
2023/07/11 05:38:16;;;;;;;11.90;7.63;;;22.60;1.00;;;;;;4990786;28;20182;-73
2023/07/11 05:40:42;;;;;;;13.93;7.10;;;22.60;1.00;;;;;;4989514;28;20460;-73
2023/07/11 05:43:07;;;;;;;12.50;7.40;;;22.70;1.00;;;;;;4990798;28;20442;-74
2023/07/11 05:45:33;;;;;;;9.97;7.80;;;22.80;1.00;;;;;;4990937;28;20782;-73
2023/07/11 05:47:59;;;;;;;12.13;7.23;;;22.90;1.00;;;;;;4990540;28;20183;-74
2023/07/11 05:50:25;;;;;;;10.40;7.77;;;23.00;1.00;;;;;;4990980;28;20576;-74
2023/07/11 05:52:50;;;;;;;11.33;7.10;;;23.10;1.00;;;;;;4989175;28;20871;-74
2023/07/11 05:55:16;;;;;;;10.27;7.23;;;23.30;1.00;;;;;;4990584;28;20529;-74
2023/07/11 05:57:42;;;;;;;12.83;7.47;;;23.40;1.00;;;;;;4990584;28;20213;-74
2023/07/11 06:00:09;;;;;;;17.33;7.63;;;23.60;1.00;;;;;;4990707;28;20205;-74
2023/07/11 06:02:36;;;;;;;11.10;7.67;;;23.70;1.00;;;;;;4990467;28;20728;-74
2023/07/11 06:05:02;;;;;;;10.63;7.50;;;23.70;1.00;;;;;;4981599;28;20465;-74
2023/07/11 06:07:28;;;;;;;10.57;7.60;;;23.70;1.00;;;;;;4988428;28;20893;-74
2023/07/11 06:09:55;;;;;;;12.00;7.97;;;23.90;1.00;;;;;;4990098;28;21142;-74
2023/07/11 06:12:21;;;;;;;10.70;7.30;;;24.00;1.00;;;;;;4990477;28;20450;-74
2023/07/11 06:14:48;;;;;;;19.90;7.90;;;24.20;1.00;;;;;;4989848;28;20426;-73
2023/07/11 06:17:13;;;;;;;18.70;8.13;;;24.20;1.00;;;;;;4990303;28;20448;-73
2023/07/11 06:19:39;;;;;;;11.60;7.70;;;24.30;1.00;;;;;;4989979;28;20421;-72
2023/07/11 06:22:05;;;;;;;10.40;7.60;;;24.40;1.00;;;;;;4990283;28;20553;-74
2023/07/11 06:24:30;;;;;;;12.27;7.40;;;24.40;1.00;;;;;;4989950;28;20288;-73
2023/07/11 06:26:56;;;;;;;10.17;7.37;;;24.50;1.00;;;;;;4990080;28;20718;-74
2023/07/11 06:29:21;;;;;;;9.80;6.60;;;24.60;1.00;;;;;;4989209;28;20507;-73
2023/07/11 06:31:47;;;;;;;12.80;7.80;;;24.80;1.00;;;;;;4992317;28;20257;-74
2023/07/11 06:34:12;;;;;;;8.63;7.10;;;24.80;1.00;;;;;;4989845;28;20209;-73
2023/07/11 06:36:38;;;;;;;9.20;7.40;;;24.90;1.00;;;;;;4990109;28;20221;-73
2023/07/11 06:39:03;;;;;;;10.10;6.73;;;24.90;1.00;;;;;;4989353;28;20187;-74
2023/07/11 06:41:29;;;;;;;10.57;7.00;;;25.10;1.00;;;;;;4990380;28;20280;-73
2023/07/11 06:43:56;;;;;;;10.30;7.27;;;25.20;1.00;;;;;;4989092;28;20203;-74
2023/07/11 06:46:22;;;;;;;9.90;6.17;;;25.30;1.00;;;;;;4990016;28;20680;-74
2023/07/11 06:48:47;;;;;;;10.47;6.90;;;25.50;1.00;;;;;;4989485;28;20421;-73
2023/07/11 06:51:13;;;;;;;14.70;6.67;;;25.70;1.00;;;;;;4990282;28;20507;-74
2023/07/11 06:53:39;;;;;;;10.83;6.60;;;25.80;1.00;;;;;;4989369;28;20233;-73
2023/07/11 06:56:04;;;;;;;9.57;7.17;;;26.00;1.00;;;;;;4989645;28;20179;-74
2023/07/11 06:58:31;;;;;;;11.80;7.40;;;26.10;1.00;;;;;;4989670;28;20201;-74
2023/07/11 07:01:03;;;;;;;9.90;7.37;;;26.20;1.00;;;;;;4989443;28;20198;-73
2023/07/11 07:03:29;;;;;;;9.93;6.87;;;26.40;1.00;;;;;;4989472;28;20441;-73
2023/07/11 07:06:02;;;;;;;10.97;7.30;;;26.50;1.00;;;;;;4981819;28;21244;-74
2023/07/11 07:08:27;;;;;;;10.70;7.00;;;26.60;1.00;;;;;;4989907;28;20429;-73
2023/07/11 07:10:53;;;;;;;11.77;6.80;;;26.70;1.00;;;;;;4989653;28;20921;-74
2023/07/11 07:13:21;;;;;;;15.53;7.40;;;26.90;1.00;;;;;;4989101;28;20202;-72
2023/07/11 07:15:52;;;;;;;15.13;7.80;;;27.00;1.00;;;;;;4989315;28;20182;-72
2023/07/11 07:18:18;;;;;;;12.83;7.30;;;27.30;1.00;;;;;;4990270;28;20204;-73
2023/07/11 07:20:45;;;;;;;8.67;6.83;;;27.50;1.00;;;;;;4993549;28;20187;-72
2023/07/11 07:23:10;;;;;;;13.57;7.97;;;27.70;1.00;;;;;;4993013;28;20213;-74
2023/07/11 07:25:36;;;;;;;18.00;8.03;;;27.80;1.00;;;;;;4993422;28;20213;-74
2023/07/11 07:28:03;;;;;;;10.80;7.80;;;27.90;1.00;;;;;;4992780;28;20189;-74
2023/07/11 07:30:28;;;;;;;11.10;7.83;;;28.20;1.00;;;;;;4993450;28;20186;-74
2023/07/11 07:32:54;;;;;;;13.83;7.87;;;28.40;1.00;;;;;;4996179;28;20210;-73
2023/07/11 07:35:20;;;;;;;10.80;8.20;;;28.50;1.00;;;;;;4993069;28;20187;-74
2023/07/11 07:37:46;;;;;;;11.90;8.03;;;28.80;1.00;;;;;;4992788;28;20273;-70
2023/07/11 07:40:11;;;;;;;10.03;7.43;;;28.80;1.00;;;;;;4993229;28;20186;-74
2023/07/11 07:42:37;;;;;;;14.87;8.67;;;28.90;1.00;;;;;;4992921;28;20699;-74
2023/07/11 07:45:04;;;;;;;13.30;7.93;;;28.90;1.00;;;;;;4992703;28;20202;-74
2023/07/11 07:47:29;;;;;;;17.60;8.20;;;28.90;1.00;;;;;;4993267;28;20182;-74
2023/07/11 07:49:55;;;;;;;11.77;8.00;;;29.20;1.00;;;;;;4992884;28;20198;-74
2023/07/11 07:52:21;;;;;;;12.83;8.50;;;29.40;1.00;;;;;;4993087;28;20206;-74
2023/07/11 07:54:46;;;;;;;12.17;8.30;;;29.50;1.00;;;;;;4992734;28;20183;-74
2023/07/11 07:57:12;;;;;;;14.40;8.85;;;29.10;1.00;;;;;;4984779;28;20186;-74
2023/07/11 07:59:37;;;;;;;16.63;8.93;;;29.30;1.00;;;;;;4992976;28;20273;-73
2023/07/11 08:02:03;;;;;;;13.05;8.77;;;29.70;1.00;;;;;;4992486;28;20236;-74
2023/07/11 08:04:30;;;;;;;14.10;9.30;;;29.80;1.00;;;;;;4992029;28;20213;-74
2023/07/11 08:06:56;;;;;;;15.60;8.90;;;29.90;1.00;;;;;;4992405;28;20183;-74
2023/07/11 08:09:21;;;;;;;11.75;8.07;;;30.00;1.00;;;;;;4992662;28;20189;-74
2023/07/11 08:11:47;;;;;;;14.05;8.50;;;29.90;1.00;;;;;;4992595;28;20269;-74
2023/07/11 08:14:12;;;;;;;11.50;8.02;;;29.70;1.00;;;;;;4991964;28;20704;-75
2023/07/11 08:16:39;;;;;;;9.95;7.40;;;29.70;1.00;;;;;;4992650;28;20186;-74
2023/07/11 08:19:05;;;;;;;12.57;8.20;;;29.80;1.00;;;;;;4992276;28;20687;-74
2023/07/11 08:21:31;;;;;;;10.23;7.57;;;31.30;1.00;;;;;;4992741;28;20301;-74
2023/07/11 08:23:57;;;;;;;12.30;7.45;;;30.00;1.00;;;;;;4991643;28;20272;-74
2023/07/11 08:26:23;;;;;;;11.55;7.75;;;30.50;1.00;;;;;;4992527;28;20545;-74
2023/07/11 08:28:49;;;;;;;8.57;7.20;;;30.80;1.00;;;;;;4992385;28;20262;-74
2023/07/11 08:31:15;;;;;;;13.60;6.90;;;31.10;1.00;;;;;;4983147;28;20187;-74
2023/07/11 08:33:41;;;;;;;10.73;7.13;;;31.40;1.00;;;;;;4991570;28;20573;-74
2023/07/11 08:36:07;;;;;;;8.50;6.95;;;31.50;1.00;;;;;;4991080;28;20202;-74
2023/07/11 08:38:33;;;;;;;11.30;7.10;;;31.70;1.00;;;;;;4992079;28;20465;-72
2023/07/11 08:41:25;;;;;;;10.93;7.25;;;32.00;1.00;;;;;;4991825;28;20186;-73
2023/07/11 08:43:54;;;;;;;10.82;7.88;;;32.50;1.00;;;;;;4991712;28;20203;-74
2023/07/11 08:46:21;;;;;;;8.27;7.10;;;32.70;1.00;;;;;;4984676;28;20179;-74
2023/07/11 08:48:59;;;;;;;8.35;6.35;;;32.50;1.00;;;;;;4991876;28;20182;-75
2023/07/11 08:51:34;;;;;;;11.77;7.28;;;32.50;1.00;;;;;;4985459;28;20215;-74
2023/07/11 08:54:28;;;;;;;10.80;7.35;;;32.60;1.00;;;;;;4991313;28;20206;-74
2023/07/11 08:56:56;;;;;;;10.55;6.88;;;32.70;1.00;;;;;;4991691;28;20191;-73
2023/07/11 08:59:50;;;;;;;9.00;7.10;;;32.40;1.00;;;;;;4991844;28;20225;-74
2023/07/11 09:02:47;;;;;;;11.80;7.00;;;32.60;1.00;;;;;;4991571;28;20203;-74
2023/07/11 09:05:18;;;;;;;13.63;7.40;;;32.90;1.00;;;;;;4991113;28;21511;-74
2023/07/11 09:07:45;;;;;;;10.80;7.70;;;33.50;1.00;;;;;;4983743;28;20654;-74
2023/07/11 09:10:29;;;;;;;12.80;7.40;;;34.40;1.00;;;;;;4990127;28;20225;-74
2023/07/11 09:13:26;;;;;;;15.25;7.47;;;35.50;1.00;;;;;;4991247;28;20289;-74
2023/07/11 09:16:23;;;;;;;13.25;6.68;;;36.10;1.00;;;;;;4991679;28;20214;-75
2023/07/11 09:19:02;;;;;;;10.18;7.22;;;37.30;1.00;;;;;;4987305;28;20988;-75
2023/07/11 09:21:31;;;;;;;9.52;6.60;;;38.20;1.00;;;;;;4984655;28;20196;-74
2023/07/11 09:24:17;;;;;;;11.25;6.82;;;38.60;1.00;;;;;;4990362;28;20210;-73
2023/07/11 09:26:48;;;;;;;10.40;6.90;;;39.50;1.00;;;;;;4991041;28;20186;-74
2023/07/11 09:29:15;;;;;;;13.27;6.45;;;40.20;1.00;;;;;;4990107;28;20190;-75
2023/07/11 09:31:45;;;;;;;9.75;6.57;;;40.90;1.00;;;;;;4991156;28;20265;-75
2023/07/11 09:34:37;;;;;;;8.60;6.60;;;41.50;1.00;;;;;;4990825;28;20488;-75
2023/07/11 09:37:23;;;;;;;10.52;6.15;;;42.10;1.00;;;;;;4990081;28;20285;-75
2023/07/11 09:39:57;;;;;;;9.70;6.03;;;41.90;1.00;;;;;;4990831;28;20233;-76
2023/07/11 09:42:44;;;;;;;8.30;6.15;;;41.60;1.00;;;;;;4983256;28;20216;-76
2023/07/11 09:45:19;;;;;;;7.55;6.45;;;42.50;1.00;;;;;;4990413;28;20577;-76
2023/07/11 09:48:03;;;;;;;9.55;6.55;;;42.50;1.00;;;;;;4990963;28;20189;-76
2023/07/11 09:50:52;;;;;;;13.57;6.47;;;42.00;1.00;;;;;;4983844;28;20560;-76
2023/07/11 09:53:21;;;;;;;9.55;6.53;;;41.80;1.00;;;;;;4990169;28;20724;-75
2023/07/11 09:55:53;;;;;;;14.77;6.93;;;41.40;1.00;;;;;;4989558;28;20553;-75
2023/07/11 09:58:19;;;;;;;9.45;6.60;;;41.40;1.00;;;;;;4990522;28;20661;-75
2023/07/11 10:00:50;;;;;;;12.65;7.28;;;41.30;1.00;;;;;;4990787;28;20249;-75
2023/07/11 10:03:18;;;;;;;12.07;6.40;;;41.10;1.00;;;;;;4990069;28;20261;-75
2023/07/11 10:05:49;;;;;;;8.68;6.70;;;41.20;1.00;;;;;;4990526;28;20605;-75
2023/07/11 10:08:23;;;;;;;12.02;7.35;;;41.60;1.00;;;;;;4990244;28;20182;-74
2023/07/11 10:10:51;;;;;;;14.77;6.75;;;42.20;1.00;;;;;;4991000;28;20516;-75
2023/07/11 10:13:18;;;;;;;13.23;8.15;;;42.60;1.00;;;;;;4989866;28;20209;-75
2023/07/11 10:15:54;;;;;;;15.70;8.05;;;42.90;1.00;;;;;;4990579;28;20206;-76
2023/07/11 10:18:25;;;;;;;13.27;8.40;;;43.90;1.00;;;;;;4990181;28;20193;-76
2023/07/11 10:20:56;;;;;;;12.27;7.70;;;44.20;1.00;;;;;;4990320;28;20182;-75
2023/07/11 10:23:24;;;;;;;12.88;8.57;;;44.60;1.00;;;;;;4989262;28;20628;-75
2023/07/11 10:26:02;;;;;;;15.32;8.25;;;44.80;1.00;;;;;;4990584;28;20236;-76
2023/07/11 10:28:39;;;;;;;13.80;8.95;;;44.40;1.00;;;;;;4982480;28;20269;-76
2023/07/11 10:31:13;;;;;;;14.40;9.15;;;44.20;1.00;;;;;;4990120;28;20182;-73
2023/07/11 10:34:00;;;;;;;18.73;9.13;;;43.20;1.00;;;;;;4989518;28;20202;-75
2023/07/11 10:36:45;;;;;;;12.40;8.00;;;43.50;1.00;;;;;;4989900;28;20281;-76
2023/07/11 10:39:19;;;;;;;16.15;8.38;;;43.50;1.00;;;;;;4989841;28;20745;-76
2023/07/11 10:42:25;;;;;;;14.48;8.77;;;43.40;1.00;;;;;;4988709;28;20193;-73
2023/07/11 10:45:00;;;;;;;13.75;8.32;;;44.20;1.00;;;;;;4989844;28;20764;-76
2023/07/11 10:47:32;;;;;;;17.70;9.55;;;44.10;1.00;;;;;;4990194;28;20213;-76
2023/07/11 10:50:06;;;;;;;16.42;8.18;;;43.40;1.00;;;;;;4989981;28;20174;-76
2023/07/11 10:52:35;;;;;;;11.88;7.90;;;43.60;1.00;;;;;;4989745;28;20667;-75
2023/07/11 10:55:18;;;;;;;17.55;8.85;;;43.90;1.00;;;;;;4989604;28;20182;-75
2023/07/11 10:57:50;;;;;;;16.63;8.82;;;43.70;1.00;;;;;;4969314;28;20183;-75
2023/07/11 11:00:19;;;;;;;12.73;8.07;;;43.70;1.00;;;;;;4987892;28;20186;-75
2023/07/11 11:02:55;;;;;;;16.98;8.18;;;44.10;1.00;;;;;;4989674;28;20618;-75
2023/07/11 11:05:31;;;;;;;8.40;6.70;;;44.40;1.00;;;;;;4989316;28;20225;-75
2023/07/11 11:08:14;;;;;;;9.25;6.95;;;44.10;1.00;;;;;;4988557;28;20683;-75
2023/07/11 11:10:49;;;;;;;11.85;6.47;;;44.60;1.00;;;;;;4989923;28;20265;-75
2023/07/11 11:13:42;;;;;;;13.65;6.72;;;45.10;1.00;;;;;;4989111;28;20436;-75
2023/07/11 11:16:28;;;;;;;10.48;6.32;;;44.30;1.00;;;;;;4989580;28;20186;-74
2023/07/11 11:19:25;;;;;;;12.45;6.70;;;44.10;1.00;;;;;;4988153;28;20179;-76
2023/07/11 11:22:20;;;;;;;13.27;7.60;;;44.20;1.00;;;;;;4989554;28;20740;-76
2023/07/11 11:25:00;;;;;;;9.85;7.10;;;44.10;1.00;;;;;;4983225;28;20218;-76
2023/07/11 11:27:59;;;;;;;10.82;7.22;;;43.20;1.00;;;;;;4989318;28;20258;-75
2023/07/11 11:30:48;;;;;;;14.02;7.22;;;44.20;1.00;;;;;;4989472;28;20259;-75
2023/07/11 11:33:34;;;;;;;11.75;7.28;;;44.60;1.00;;;;;;4995192;28;20241;-75
2023/07/11 11:36:32;;;;;;;8.57;6.57;;;43.30;1.00;;;;;;4988146;28;20175;-75
2023/07/11 11:39:29;;;;;;;9.65;6.68;;;43.50;1.00;;;;;;4984208;28;20657;-75
2023/07/11 11:42:05;;;;;;;8.20;6.15;;;43.20;1.00;;;;;;4953886;28;20292;-75
2023/07/11 11:44:50;;;;;;;10.85;5.93;;;43.20;1.00;;;;;;4988856;28;20548;-75
2023/07/11 11:47:17;;;;;;;8.55;5.53;;;44.30;1.00;;;;;;4989185;28;20600;-75
2023/07/11 11:49:45;;;;;;;7.35;6.13;;;44.80;1.00;;;;;;4989513;28;20494;-75
2023/07/11 11:52:11;;;;;;;8.82;5.78;;;45.10;1.00;;;;;;4989113;28;20341;-74
2023/07/11 11:54:46;;;;;;;8.65;6.10;;;45.20;1.00;;;;;;4988980;28;20183;-76
2023/07/11 11:57:22;;;;;;;8.35;6.10;;;44.30;1.00;;;;;;4989244;28;20686;-73
2023/07/11 11:59:48;;;;;;;10.40;6.20;;;43.90;1.00;;;;;;4989384;28;20190;-75
2023/07/11 12:02:34;;;;;;;10.05;5.60;;;43.20;1.00;;;;;;4989056;28;20218;-75
2023/07/11 12:05:17;;;;;;;10.80;6.10;;;43.40;1.00;;;;;;4985733;28;20373;-75
2023/07/11 12:07:44;;;;;;;11.13;6.10;;;45.00;1.00;;;;;;4993014;28;20258;-75
2023/07/11 12:10:09;;;;;;;9.07;5.90;;;44.00;1.00;;;;;;4992773;28;20187;-75
2023/07/11 12:12:35;;;;;;;8.85;6.10;;;44.20;1.00;;;;;;4984641;28;20221;-76
2023/07/11 12:15:22;;;;;;;7.30;6.18;;;44.20;1.00;;;;;;4992533;28;20198;-75
2023/07/11 12:17:49;;;;;;;6.78;6.07;;;44.80;1.00;;;;;;4986369;28;20190;-76
2023/07/11 12:20:26;;;;;;;8.43;5.68;;;44.00;1.00;;;;;;4992308;28;20218;-75
2023/07/11 12:22:52;;;;;;;10.10;6.35;;;43.10;1.00;;;;;;4992690;28;20206;-75
2023/07/11 12:25:20;;;;;;;8.02;5.93;;;44.40;1.00;;;;;;4992349;28;20667;-75
2023/07/11 12:27:47;;;;;;;6.43;5.72;;;44.50;1.00;;;;;;4992737;28;20186;-75
2023/07/11 12:30:27;;;;;;;8.55;6.15;;;45.10;1.00;;;;;;4991810;28;20178;-72
2023/07/11 12:32:55;;;;;;;7.82;6.05;;;45.70;1.00;;;;;;4991987;28;20230;-75
2023/07/11 12:35:23;;;;;;;8.25;6.45;;;46.20;1.00;;;;;;4991829;28;20210;-76
2023/07/11 12:38:00;;;;;;;7.63;6.00;;;46.10;1.00;;;;;;4992337;28;20207;-75
2023/07/11 12:40:48;;;;;;;9.77;5.82;;;46.80;1.00;;;;;;4990265;28;20185;-75
2023/07/11 12:43:46;;;;;;;10.15;5.57;;;46.30;1.00;;;;;;4991809;28;20301;-74
2023/07/11 12:46:34;;;;;;;10.32;6.53;;;46.00;1.00;;;;;;4991443;28;20218;-75
2023/07/11 12:49:03;;;;;;;9.63;6.18;;;46.10;1.00;;;;;;4986960;28;20193;-76
2023/07/11 12:51:36;;;;;;;8.82;6.20;;;45.90;1.00;;;;;;4991954;28;20190;-75
2023/07/11 12:54:14;;;;;;;8.48;5.65;;;45.50;1.00;;;;;;4991986;28;20198;-76
2023/07/11 12:56:46;;;;;;;9.30;6.28;;;45.50;1.00;;;;;;4982907;28;20182;-75
2023/07/11 12:59:27;;;;;;;7.78;6.35;;;45.50;1.00;;;;;;4991805;28;20517;-76
2023/07/11 13:01:57;;;;;;;8.70;5.70;;;46.40;1.00;;;;;;4979263;28;20214;-75
2023/07/11 13:04:27;;;;;;;11.57;6.47;;;46.50;1.00;;;;;;4988664;28;20217;-75